Share

Lake Clark National Park, AK

Port Alsworth (PALJ) Elev 279 ft | 60.20 °N, 154.32 °W | Change Station

Current weather conditions updated 17 minutes ago

Overcast
Overcast
46 °F
Feels Like 41 °F
N
12
Wind Variable Wind from ENE
Sunrise 6:47 AM
Sunset 9:48 PM
Moon Waning Gibbous

Today is forecast to be Warmer than yesterday.

Pressure 29.49 in
Visibility 30.0 miles
Clouds Overcast 8000 ft
Windchill 41 °F
Dew Point 39 °F
Humidity 76%
Rainfall 0.00 in
Snow Depth Not available.
UV 1 out of 16
Pollen Not available.
Air Quality Not available.
Flu Activity Sporadic
METAR PALJ 192052Z 07010KT 30SM OVC080 08/04 A2949 RMK EST PASS OPEN NOSPECI

More Conditions Fewer Conditions

Pressure 29.49 in
Visibility 30.0 miles
Clouds Overcast 8000 ft
Windchill 41 °F
Dew Point 39 °F
Humidity 76%
Rainfall 0.00 in
Snow Depth Not available.
UV 1 out of 16
Pollen Not available.
Air Quality Not available.
Flu Activity Sporadic
METAR PALJ 192052Z 07010KT 30SM OVC080 08/04 A2949 RMK EST PASS OPEN NOSPECI

More Conditions Fewer Conditions

10-Day Weather Forecast

Almanac

Astronomy

Apr. 19, 2014 Rise Set
Actual Time 6:47 AM AKDT 9:48 PM AKDT
Civil Twilight 5:59 AM AKDT 10:37 PM AKDT
Nautical Twilight 4:52 AM AKDT 11:44 PM AKDT
Astronomical Twilight 2:55 AM AKDT 2:00 AM AKDT
Moon 2:20 AM AKDT 9:38 AM AKDT
Length of Visible Light 16h 37m
Length of Day
15h 00m
Tomorrow will be 5m 27s longer.
Waning Gibbous, 77% of the Moon is Illuminated
Today
Waning Gibbous
Apr 22
Last Quarter
Apr 29
New
May 6
First Quarter
May 14
Full

Today's Extremes

State Highs State Lows

Community

  • Skirting the Horizon
    Skirting the Horizon
  • Piriapolis
    Piriapolis
  • A Glorious Morning
    A Glorious Morning
  • Tender Rays Of Hope
    Tender Rays Of Hope
  • Bleeding Hearts
    Bleeding Hearts

WunderPhotos

Upload Photos

1,702,907 photos uploaded!

WunderBlogs® & News

Nearby

Snow Depth

Station Depth Elevation
Mcneil Canyon 9 in 1320 ft
Port Graham 8 in 300 ft
MF Bradley River 21 in 2300 ft
Cooper Lake 21 in 1200 ft
Point Mackenzie 10 in 200 ft

Coastal Water Temperatures

Place Temperature
No Stations Reporting

Earthquake Activity

City Distance Mag. Time & Date
No recent earthquake activity has been reported nearby.
Minimum magnitude displayed is 2.5.

Nearby Weather Stations

Station Location Temp. Windchill Dew Point Humidity Wind Precip. Elev Updated Type
RAWS SNIPE LAKE AK, Port Alsworth, AK 38 °F 32 °F 16 °F 40% North  at  8 mph 0.00 in / hr 2314 ft 12:04 PM AKDT MADIS
RAWS PORT ALSWORTH AK, Port Alsworth, AK 46 °F 42 °F 19 °F 34% NNE  at  7 mph 0.00 in / hr 320 ft 11:57 AM AKDT MADIS
CRN LAKE CLARK NP PORT ALSWORTH 1 SW AK , Port Alsworth, AK 46 °F 46 °F - - North  at  - 0.00 in / hr 320 ft 12:15 PM AKDT MADIS

Show More Stations Show Fewer Stations

What do you think?

We're not finished. Please let us know what you like, what you don't like, and what you are still missing.